This is the latest recevied weather packets stored in our database for station/object AA4OM-2. If no packets are shown the sender has not sent any weather packets the latest 10 day(s).
| Time | Temp. | Humidity | Pressure | Rain* | Wind** | Luminosity | Snow |
|---|---|---|---|---|---|---|---|
| 1777686399 | 10° C | 72% | 1018.4 hPa | 0 mm | - | 0 W/m² | - |
| 1777686095 | 10° C | 73% | 1018.2 hPa | 0 mm | - | 0 W/m² | - |
| 1777685791 | 10° C | 73% | 1018 hPa | 0 mm | - | 0 W/m² | - |
| 1777685487 | 10.56° C | 74% | 1018.2 hPa | 0 mm | - | 0 W/m² | - |
| 1777685185 | 10.56° C | 74% | 1018.2 hPa | 0 mm | - | 0 W/m² | - |
| 1777684883 | 10.56° C | 73% | 1018 hPa | 0 mm | - | 0 W/m² | - |
| 1777684579 | 11.11° C | 70% | 1017.5 hPa | 0 mm | - | 0 W/m² | - |
| 1777684275 | 11.11° C | 67% | 1017.4 hPa | 0 mm | - | 0 W/m² | - |
| 1777683973 | 11.67° C | 65% | 1017.6 hPa | 0 mm | - | 0 W/m² | - |
| 1777683669 | 11.67° C | 65% | 1017.6 hPa | 0 mm | - | 0 W/m² | - |
| 1777683367 | 11.67° C | 65% | 1017.4 hPa | 0 mm | - | 0 W/m² | - |
| 1777683064 | 12.22° C | 63% | 1017.5 hPa | 0 mm | - | 1 W/m² | - |
| 1777682759 | 12.78° C | 61% | 1017.2 hPa | 0 mm | - | 2 W/m² | - |
| 1777682456 | 13.33° C | 58% | 1017.2 hPa | 0 mm | - | 3 W/m² | - |
| 1777682155 | 13.89° C | 57% | 1017.3 hPa | 0 mm | - | 5 W/m² | - |
| 1777681851 | 13.89° C | 52% | 1017.1 hPa | 0 mm | - | 7 W/m² | - |
| 1777681547 | 14.44° C | 51% | 1017.1 hPa | 0 mm | - | 9 W/m² | - |
| 1777681245 | 15° C | 44% | 1016.9 hPa | 0 mm | - | 13 W/m² | - |
| 1777680943 | 15.56° C | 41% | 1016.7 hPa | 0 mm | - | 22 W/m² | - |
| 1777680639 | 15.56° C | 43% | 1016.7 hPa | 0 mm | - | 25 W/m² | - |
| 1777680338 | 16.11° C | 40% | 1016.5 hPa | 0 mm | - | 33 W/m² | - |
| 1777680035 | 16.11° C | 40% | 1016.4 hPa | 0 mm | - | 45 W/m² | - |
| 1777679730 | 16.11° C | 42% | 1016.5 hPa | 0 mm | - | 52 W/m² | - |
| 1777679426 | 16.67° C | 37% | 1016.2 hPa | 0 mm | - | 57 W/m² | - |
| 1777679122 | 16.67° C | 37% | 1016.1 hPa | 0 mm | - | 70 W/m² | - |
* Rain latest hour (hover to see other rain measurements)
** Current wind speed in m/s (hover to see current wind gust speed)